^^
Grace C. Lehan Memorial Weather Station Historical Data
Daily Summary for September 28, 2021 Units:  Metric    English   Both
Daily Weekly Monthly Yearly
  High: Low: Average:
Temperature: 13.4 °C 7.4 °C 10.9 °C
Dew Point: 8.1 °C 4.9 °C 6.4 °C
Humidity: 85.1% 64.5% 74%
Wind Speed: 6.3km/h 0km/h 1.3km/h
Wind Gust: 20.9km/h - -
Wind- - SE
Pressure: 1015.5 hPa 1009 hPa -
Precipitation: 0 mm    
 
 
Tabular Data for September 28, 2021
Time Temperature Dew Point Pressure Wind Wind Speed Wind Gust Humidity Rainfall Rate (Hourly) solar
00:09 10.4 °C 8.1 °C 1009 hPa NE 0.6 km/h 6.4 km/h 85.1% 0 mm 0 W/m2
00:14 10.4 °C 7.9 °C 1009 hPa Calm   6.4 km/h 84.4% 0 mm 0 W/m2
00:19 10.4 °C 7.8 °C 1009 hPa Calm   6.4 km/h 83.8% 0 mm 0 W/m2
00:24 10.4 °C 7.6 °C 1009.4 hPa Calm   6.4 km/h 82.9% 0 mm 0 W/m2
00:29 10.4 °C 7.4 °C 1009.4 hPa NNE 0.6 km/h 6.4 km/h 82% 0 mm 0 W/m2
00:34 10.4 °C 7.4 °C 1009.4 hPa North 0.6 km/h 6.4 km/h 82% 0 mm 0 W/m2
00:39 10.3 °C 7.2 °C 1009.7 hPa NNW 0.3 km/h 6.4 km/h 81.2% 0 mm 0 W/m2
00:44 10.3 °C 7.2 °C 1009.7 hPa NNW 1 km/h 6.4 km/h 81% 0 mm 0 W/m2
00:49 10.2 °C 7.1 °C 1009.7 hPa NNW 0.5 km/h 6.4 km/h 81% 0 mm 0 W/m2
00:54 10.3 °C 7.2 °C 1009.7 hPa NNW 0.6 km/h 6.4 km/h 81% 0 mm 0 W/m2
00:59 10.3 °C 7.2 °C 1010 hPa NW 0.2 km/h 8 km/h 81% 0 mm 0 W/m2
01:04 10.4 °C 7.2 °C 1010 hPa NW 0.5 km/h 8 km/h 80.5% 0 mm 0 W/m2
01:09 10.4 °C 7.1 °C 1010 hPa NW 1 km/h 11.3 km/h 79.5% 0 mm 0 W/m2
01:14 10.5 °C 6.9 °C 1010 hPa NW 1.1 km/h 11.3 km/h 78.5% 0 mm 0 W/m2
01:19 10.6 °C 6.9 °C 1010 hPa NNW 1.1 km/h 11.3 km/h 78% 0 mm 0 W/m2
01:24 10.6 °C 6.9 °C 1010 hPa NNW 0.5 km/h 11.3 km/h 78% 0 mm 0 W/m2
01:29 10.6 °C 6.9 °C 1010 hPa NNW 1.3 km/h 11.3 km/h 77.9% 0 mm 0 W/m2
01:34 10.6 °C 6.7 °C 1010.4 hPa NW 1.6 km/h 11.3 km/h 77% 0 mm 0 W/m2
01:39 10.5 °C 6.6 °C 1010.4 hPa NW 0.6 km/h 11.3 km/h 77% 0 mm 0 W/m2
01:44 10.4 °C 6.6 °C 1010.4 hPa NW 1.8 km/h 11.3 km/h 77% 0 mm 0 W/m2
01:49 10.3 °C 6.5 °C 1010.7 hPa NW 0.8 km/h 11.3 km/h 77% 0 mm 0 W/m2
01:54 10.3 °C 6.6 °C 1010.7 hPa NW 0.8 km/h 11.3 km/h 77.3% 0 mm 0 W/m2
01:59 10.3 °C 6.7 °C 1010.7 hPa NW 2.3 km/h 11.3 km/h 78% 0 mm 0 W/m2
02:04 10.3 °C 6.7 °C 1010.7 hPa NNW 1.3 km/h 11.3 km/h 78% 0 mm 0 W/m2
02:09 10.3 °C 6.7 °C 1010.7 hPa NW 2.3 km/h 14.5 km/h 78% 0 mm 0 W/m2
02:14 10.3 °C 6.6 °C 1011.1 hPa NNW 3.1 km/h 19.3 km/h 77.8% 0 mm 0 W/m2
02:19 10.4 °C 6.6 °C 1010.7 hPa NNW 2.7 km/h 19.3 km/h 77% 0 mm 0 W/m2
02:24 10.4 °C 6.6 °C 1011.1 hPa NNW 2.6 km/h 19.3 km/h 76.9% 0 mm 0 W/m2
02:29 10.5 °C 6.4 °C 1011.1 hPa NNW 1.4 km/h 19.3 km/h 76% 0 mm 0 W/m2
02:34 10.6 °C 6.5 °C 1011.1 hPa North 1.4 km/h 19.3 km/h 76% 0 mm 0 W/m2
02:39 10.6 °C 6.5 °C 1011.1 hPa NNE 0.5 km/h 6.4 km/h 76% 0 mm 0 W/m2
02:44 10.6 °C 6.5 °C 1011.1 hPa NNW 0.5 km/h 8 km/h 76% 0 mm 0 W/m2
02:49 10.6 °C 6.5 °C 1011.1 hPa NNW 0.6 km/h 8 km/h 76% 0 mm 0 W/m2
02:54 10.6 °C 6.5 °C 1011.1 hPa NNW 0.3 km/h 8 km/h 76% 0 mm 0 W/m2
02:59 10.6 °C 6.5 °C 1011.1 hPa Calm   8 km/h 76% 0 mm 0 W/m2
03:04 10.6 °C 6.5 °C 1011.1 hPa North 1 km/h 9.7 km/h 75.8% 0 mm 0 W/m2
03:09 10.6 °C 6.5 °C 1011.1 hPa ENE 1.3 km/h 11.3 km/h 76% 0 mm 0 W/m2
03:14 10.6 °C 6.5 °C 1011.4 hPa SSW 0.5 km/h 11.3 km/h 76% 0 mm 0 W/m2
03:19 10.6 °C 6.5 °C 1011.4 hPa NNE 0.2 km/h 11.3 km/h 76% 0 mm 0 W/m2
03:24 10.5 °C 6.3 °C 1011.4 hPa Calm   11.3 km/h 75.5% 0 mm 0 W/m2
03:29 10.5 °C 6.4 °C 1011.4 hPa NNW 0.3 km/h 11.3 km/h 75.8% 0 mm 0 W/m2
03:34 10.4 °C 6.4 °C 1011.4 hPa NE 0.5 km/h 11.3 km/h 76% 0 mm 0 W/m2
03:39 10.4 °C 6.3 °C 1011.4 hPa ENE 0.3 km/h 6.4 km/h 75.5% 0 mm 0 W/m2
03:44 10.4 °C 6.4 °C 1011.4 hPa ENE 0.2 km/h 6.4 km/h 76% 0 mm 0 W/m2
03:49 10.4 °C 6.4 °C 1011.4 hPa NE 0.3 km/h 6.4 km/h 76% 0 mm 0 W/m2
03:54 10.4 °C 6.3 °C 1011.4 hPa ENE 0.6 km/h 8 km/h 76% 0 mm 0 W/m2
03:59 10.3 °C 6.3 °C 1011.7 hPa ENE 0.2 km/h 8 km/h 76% 0 mm 0 W/m2
04:04 10.3 °C 6.5 °C 1011.4 hPa Calm     77% 0 mm 0 W/m2
04:09 10.3 °C 6.4 °C 1011.7 hPa Calm   1.6 km/h 77% 0 mm 0 W/m2
04:14 10.3 °C 6.4 °C 1011.7 hPa NNE 1 km/h 9.7 km/h 77% 0 mm 0 W/m2
04:19 10.2 °C 6.3 °C 1011.7 hPa ENE 0.3 km/h 9.7 km/h 77% 0 mm 0 W/m2
04:24 10.2 °C 6.3 °C 1011.7 hPa NE 0.2 km/h 9.7 km/h 76.7% 0 mm 0 W/m2
04:29 10.1 °C 6.3 °C 1011.7 hPa Calm   9.7 km/h 77% 0 mm 0 W/m2
04:34 10.1 °C 6.2 °C 1012.1 hPa ENE 0.8 km/h 9.7 km/h 77% 0 mm 0 W/m2
04:39 10 °C 6.1 °C 1012.1 hPa ENE 0.6 km/h 9.7 km/h 77% 0 mm 0 W/m2
04:44 9.9 °C 6.1 °C 1012.1 hPa Calm   9.7 km/h 77.5% 0 mm 0 W/m2
04:49 9.8 °C 6.2 °C 1012.1 hPa NE 0.6 km/h 9.7 km/h 78% 0 mm 0 W/m2
04:54 9.7 °C 6.1 °C 1012.1 hPa NE 1 km/h 9.7 km/h 78% 0 mm 0 W/m2
04:59 9.7 °C 6.2 °C 1012.1 hPa NE 1.3 km/h 11.3 km/h 79% 0 mm 0 W/m2
05:04 9.6 °C 6.2 °C 1012.1 hPa ENE 1.1 km/h 11.3 km/h 79% 0 mm 0 W/m2
05:09 9.6 °C 6.1 °C 1012.1 hPa ENE 0.3 km/h 8 km/h 79% 0 mm 0 W/m2
05:14 9.6 °C 6.2 °C 1012.1 hPa NE 0.3 km/h 8 km/h 79.5% 0 mm 0 W/m2
05:19 9.6 °C 6.1 °C 1012.4 hPa Calm   8 km/h 79% 0 mm 0 W/m2
05:24 9.6 °C 6.1 °C 1012.4 hPa NE 0.2 km/h 8 km/h 79% 0 mm 0 W/m2
05:29 9.6 °C 6.1 °C 1012.4 hPa Calm   8 km/h 79.1% 0 mm 0 W/m2
05:34 9.6 °C 6.1 °C 1012.4 hPa NNE 0.3 km/h 8 km/h 79% 0 mm 0 W/m2
05:39 9.6 °C 6.2 °C 1012.8 hPa North 0.8 km/h 9.7 km/h 79.4% 0 mm 0 W/m2
05:44 9.5 °C 6.2 °C 1012.8 hPa Calm   9.7 km/h 80% 0 mm 0 W/m2
05:49 9.5 °C 6.2 °C 1012.8 hPa North 0.5 km/h 9.7 km/h 80% 0 mm 0 W/m2
05:54 9.5 °C 6.2 °C 1012.8 hPa North 0.3 km/h 9.7 km/h 80% 0 mm 0 W/m2
05:59 9.4 °C 6.2 °C 1012.8 hPa North 0.2 km/h 9.7 km/h 80% 0 mm 0 W/m2
06:04 9.4 °C 6.1 °C 1012.8 hPa NE 1 km/h 9.7 km/h 80% 0 mm 0 W/m2
06:09 9.3 °C 6.1 °C 1012.8 hPa Calm   6.4 km/h 80% 0 mm 0 W/m2
06:14 9.3 °C 6.1 °C 1012.8 hPa NE 0.2 km/h 6.4 km/h 80% 0 mm 0 W/m2
06:19 9.3 °C 6 °C 1012.8 hPa NE 0.2 km/h 6.4 km/h 80% 0 mm 0 W/m2
06:24 9.3 °C 6 °C 1012.8 hPa Calm   6.4 km/h 80% 0 mm 0 W/m2
06:29 9.2 °C 5.9 °C 1012.8 hPa Calm   6.4 km/h 80% 0 mm 0 W/m2
06:34 9.2 °C 5.9 °C 1012.8 hPa Calm   6.4 km/h 80% 0 mm 0 W/m2
06:39 9.1 °C 5.8 °C 1012.8 hPa Calm   3.2 km/h 80% 0 mm 0 W/m2
06:44 9 °C 5.8 °C 1012.8 hPa Calm   3.2 km/h 80.5% 0 mm 0 W/m2
06:49 8.9 °C 5.9 °C 1012.8 hPa North 0.3 km/h 4.8 km/h 81% 0 mm 0 W/m2
06:54 8.9 °C 5.8 °C 1012.8 hPa NNE 0.3 km/h 4.8 km/h 81% 0 mm 0 W/m2
06:59 8.9 °C 5.8 °C 1012.8 hPa Calm   4.8 km/h 81% 0 mm 0 W/m2
07:04 8.9 °C 5.8 °C 1013.1 hPa NNE 0.6 km/h 4.8 km/h 81% 0 mm 0 W/m2
07:09 8.9 °C 5.8 °C 1013.1 hPa ENE 0.6 km/h 6.4 km/h 81% 0 mm 0 W/m2
07:14 8.9 °C 5.8 °C 1013.1 hPa Calm   6.4 km/h 81% 0 mm 0 W/m2
07:19 8.9 °C 5.8 °C 1013.1 hPa ENE 0.3 km/h 6.4 km/h 81% 0 mm 0 W/m2
07:24 8.8 °C 5.8 °C 1013.1 hPa ENE 1.6 km/h 11.3 km/h 81% 0 mm 5 W/m2
07:29 8.8 °C 5.7 °C 1013.1 hPa ENE 0.6 km/h 11.3 km/h 80.8% 0 mm 7 W/m2
07:34 8.8 °C 5.8 °C 1013.1 hPa ENE 0.8 km/h 11.3 km/h 81% 0 mm 19 W/m2
07:39 8.8 °C 5.8 °C 1013.1 hPa ENE 1.6 km/h 11.3 km/h 81% 0 mm 23 W/m2
07:44 8.8 °C 5.8 °C 1013.1 hPa Calm   11.3 km/h 81% 0 mm 26 W/m2
07:49 8.8 °C 5.8 °C 1013.4 hPa East 0.5 km/h 11.3 km/h 81% 0 mm 33 W/m2
07:54 8.8 °C 5.8 °C 1013.4 hPa Calm   11.3 km/h 81% 0 mm 33 W/m2
07:59 8.9 °C 5.8 °C 1013.4 hPa ENE 1.1 km/h 11.3 km/h 81% 0 mm 33 W/m2
08:00 8.9 °C 5.8 °C 1013.4 hPa Calm   11.3 km/h 81% 0 mm 33 W/m2
08:09 8.9 °C 5.8 °C 1013.4 hPa ENE 1.3 km/h 8 km/h 81% 0 mm 42 W/m2
08:14 8.9 °C 5.9 °C 1013.8 hPa Calm   8 km/h 81% 0 mm 44 W/m2
08:19 8.9 °C 5.9 °C 1013.8 hPa ENE 0.2 km/h 8 km/h 81.5% 0 mm 42 W/m2
08:24 8.9 °C 5.9 °C 1014.1 hPa East 0.2 km/h 8 km/h 81% 0 mm 40 W/m2
08:29 9 °C 6 °C 1014.1 hPa Calm   8 km/h 81.4% 0 mm 53 W/m2
08:34 9 °C 6.1 °C 1014.1 hPa Calm   8 km/h 82% 0 mm 83 W/m2
08:39 9.1 °C 6.2 °C 1014.4 hPa ENE 0.2 km/h 4.8 km/h 82% 0 mm 111 W/m2
08:44 9.2 °C 6.2 °C 1014.4 hPa NE 1.3 km/h 11.3 km/h 81.6% 0 mm 105 W/m2
08:49 9.3 °C 6.2 °C 1014.4 hPa ENE 4.3 km/h 14.5 km/h 80.6% 0 mm 181 W/m2
08:54 9.5 °C 6.1 °C 1014.4 hPa ENE 5.8 km/h 14.5 km/h 79.3% 0 mm 181 W/m2
08:59 9.6 °C 5.9 °C 1014.1 hPa ENE 3.2 km/h 14.5 km/h 77.8% 0 mm 186 W/m2
09:04 9.8 °C 6.1 °C 1014.1 hPa ENE 2.7 km/h 14.5 km/h 77.7% 0 mm 250 W/m2
09:09 10.2 °C 6.1 °C 1014.1 hPa ENE 3.5 km/h 14.5 km/h 75.8% 0 mm 367 W/m2
09:14 10.6 °C 6.2 °C 1014.1 hPa ENE 5.1 km/h 14.5 km/h 74.2% 0 mm 374 W/m2
09:19 10.8 °C 6.2 °C 1014.4 hPa ENE 2.9 km/h 14.5 km/h 73% 0 mm 381 W/m2
09:24 11 °C 6.4 °C 1014.4 hPa NE 0.8 km/h 14.5 km/h 73.3% 0 mm 381 W/m2
09:29 11.1 °C 6.3 °C 1014.4 hPa ENE 2.3 km/h 14.5 km/h 72.2% 0 mm 380 W/m2
09:34 11.2 °C 6.2 °C 1014.8 hPa East 2.6 km/h 14.5 km/h 71.3% 0 mm 496 W/m2
09:39 11.3 °C 6.3 °C 1014.4 hPa East 3.9 km/h 16.1 km/h 71.1% 0 mm 527 W/m2
09:44 11.4 °C 6.3 °C 1014.4 hPa ENE 0.8 km/h 16.1 km/h 70.8% 0 mm 561 W/m2
09:49 11.8 °C 6.6 °C 1014.8 hPa North 3.1 km/h 16.1 km/h 70.5% 0 mm 598 W/m2
09:54 12.1 °C 6.6 °C 1014.8 hPa ENE 4.7 km/h 16.1 km/h 68.9% 0 mm 605 W/m2
09:59 12.3 °C 6.6 °C 1014.8 hPa ENE 3.9 km/h 16.1 km/h 67.9% 0 mm 605 W/m2
10:04 12.3 °C 6 °C 1014.8 hPa ENE 3.1 km/h 16.1 km/h 65.4% 0 mm 517 W/m2
10:09 12.1 °C 6 °C 1014.8 hPa NNE 3.2 km/h 17.7 km/h 66% 0 mm 517 W/m2
10:14 12 °C 5.9 °C 1014.8 hPa ENE 1.8 km/h 17.7 km/h 66.4% 0 mm 499 W/m2
10:19 12.2 °C 6.5 °C 1014.8 hPa ENE 1.9 km/h 17.7 km/h 68% 0 mm 504 W/m2
10:24 12.4 °C 6.1 °C 1014.8 hPa ENE 5 km/h 17.7 km/h 65.1% 0 mm 501 W/m2
10:29 12.3 °C 5.8 °C 1014.8 hPa East 3.7 km/h 17.7 km/h 64.5% 0 mm 548 W/m2
10:34 12.2 °C 6 °C 1014.8 hPa East 2.4 km/h 17.7 km/h 65.7% 0 mm 603 W/m2
10:39 12.2 °C 6.1 °C 1014.8 hPa NE 1.6 km/h 9.7 km/h 65.8% 0 mm 659 W/m2
10:44 12.4 °C 6.3 °C 1014.8 hPa NE 2.4 km/h 11.3 km/h 66.3% 0 mm 659 W/m2
10:49 12.5 °C 6.2 °C 1014.8 hPa NE 1.3 km/h 11.3 km/h 65.3% 0 mm 643 W/m2
10:54 12.5 °C 6.2 °C 1014.8 hPa ENE 3.1 km/h 11.3 km/h 65.3% 0 mm 512 W/m2
10:59 12.5 °C 6.2 °C 1014.4 hPa NE 4.2 km/h 11.3 km/h 65.4% 0 mm 571 W/m2
11:04 12.6 °C 6.3 °C 1014.4 hPa NE 3.7 km/h 20.9 km/h 65.7% 0 mm 550 W/m2
11:09 12.6 °C 6.2 °C 1014.4 hPa East 2.6 km/h 20.9 km/h 65.3% 0 mm 497 W/m2
11:14 12.4 °C 6.1 °C 1014.4 hPa ENE 2.9 km/h 20.9 km/h 65.3% 0 mm 571 W/m2
11:19 12.5 °C 6.3 °C 1014.4 hPa ENE 4.7 km/h 20.9 km/h 65.8% 0 mm 613 W/m2
11:24 12.4 °C 6.1 °C 1014.4 hPa ENE 4.5 km/h 20.9 km/h 65.2% 0 mm 613 W/m2
11:29 12.4 °C 6.2 °C 1014.4 hPa East 4.8 km/h 20.9 km/h 65.7% 0 mm 503 W/m2
11:34 12.4 °C 6.3 °C 1014.1 hPa ENE 3.4 km/h 20.9 km/h 65.9% 0 mm 686 W/m2
11:39 12.6 °C 6.4 °C 1014.1 hPa ENE 1.9 km/h 14.5 km/h 66.2% 0 mm 715 W/m2
11:44 12.7 °C 6.6 °C 1014.1 hPa ENE 3.1 km/h 14.5 km/h 66.6% 0 mm 615 W/m2
11:49 12.8 °C 6.3 °C 1014.1 hPa ENE 6.3 km/h 17.7 km/h 64.9% 0 mm 388 W/m2
11:54 12.7 °C 6.4 °C 1014.1 hPa ENE 3.7 km/h 17.7 km/h 65.6% 0 mm 371 W/m2
11:59 12.5 °C 6.2 °C 1013.8 hPa ENE 4.7 km/h 17.7 km/h 65.4% 0 mm 339 W/m2
12:09 12.4 °C 6.3 °C 1013.8 hPa ENE 4.5 km/h 17.7 km/h 66.4% 0 mm 388 W/m2
12:14 12.3 °C 6.2 °C 1013.8 hPa NE 5 km/h 17.7 km/h 66.3% 0 mm 366 W/m2
12:19 12.3 °C 6.3 °C 1013.8 hPa ENE 3.5 km/h 17.7 km/h 66.9% 0 mm 327 W/m2
12:24 12.3 °C 6.4 °C 1013.8 hPa NE 2.7 km/h 17.7 km/h 67.5% 0 mm 304 W/m2
12:29 12.3 °C 6.4 °C 1013.8 hPa NE 2.6 km/h 17.7 km/h 67.3% 0 mm 295 W/m2
12:34 12.4 °C 6.7 °C 1013.8 hPa NE 1.3 km/h 17.7 km/h 67.6% 0 mm 295 W/m2
12:39 12.6 °C 6.5 °C 1013.8 hPa ENE 2.4 km/h 9.7 km/h 66.5% 0 mm 315 W/m2
12:44 12.6 °C 6.4 °C 1013.4 hPa ENE 3.5 km/h 11.3 km/h 66.4% 0 mm 311 W/m2
12:49 12.5 °C 6.4 °C 1013.4 hPa ENE 2.1 km/h 11.3 km/h 66.5% 0 mm 260 W/m2
12:54 12.4 °C 6.3 °C 1013.4 hPa ENE 1.3 km/h 11.3 km/h 66.3% 0 mm 271 W/m2
12:59 12.4 °C 6.5 °C 1013.4 hPa East 2.3 km/h 11.3 km/h 67.2% 0 mm 294 W/m2
13:04 12.3 °C 6.3 °C 1013.4 hPa ENE 2.1 km/h 11.3 km/h 66.8% 0 mm 308 W/m2
13:09 12.4 °C 6.7 °C 1013.4 hPa North 1.1 km/h 9.7 km/h 68.3% 0 mm 279 W/m2
13:14 12.6 °C 6.9 °C 1013.4 hPa Calm   9.7 km/h 68.6% 0 mm 262 W/m2
13:19 12.7 °C 6.8 °C 1013.4 hPa East 0.3 km/h 9.7 km/h 67.3% 0 mm 258 W/m2
13:24 12.7 °C 6.7 °C 1013.4 hPa NNE 0.5 km/h 9.7 km/h 67.1% 0 mm 243 W/m2
13:29 12.7 °C 6.9 °C 1013.4 hPa NNE 1.9 km/h 9.7 km/h 67.8% 0 mm 241 W/m2
13:34 12.8 °C 6.8 °C 1013.4 hPa NNE 2.1 km/h 11.3 km/h 67.2% 0 mm 230 W/m2
13:39 12.8 °C 7.1 °C 1013.4 hPa NNW 0.6 km/h 11.3 km/h 68% 0 mm 227 W/m2
13:44 12.8 °C 7.1 °C 1013.4 hPa NNW 0.3 km/h 11.3 km/h 68.3% 0 mm 220 W/m2
13:49 12.8 °C 7.1 °C 1013.4 hPa NW 1.6 km/h 16.1 km/h 68% 0 mm 232 W/m2
13:54 12.9 °C 6.9 °C 1013.1 hPa NNW 1.1 km/h 16.1 km/h 66.9% 0 mm 232 W/m2
13:59 12.9 °C 7.1 °C 1013.1 hPa ENE 0.6 km/h 16.1 km/h 67.7% 0 mm 229 W/m2
14:04 12.9 °C 6.9 °C 1013.1 hPa ENE 1.4 km/h 16.1 km/h 67% 0 mm 227 W/m2
14:09 12.8 °C 6.9 °C 1013.1 hPa ENE 0.6 km/h 8 km/h 67.3% 0 mm 227 W/m2
14:14 12.9 °C 7.1 °C 1013.1 hPa NE 2.4 km/h 9.7 km/h 67.6% 0 mm 230 W/m2
14:19 12.9 °C 6.9 °C 1013.1 hPa North 1.1 km/h 9.7 km/h 67.2% 0 mm 209 W/m2
14:24 12.9 °C 7.1 °C 1013.1 hPa Calm   9.7 km/h 67.5% 0 mm 197 W/m2
14:29 13 °C 7.1 °C 1013.1 hPa NW 0.3 km/h 9.7 km/h 67.5% 0 mm 209 W/m2
14:34 13.1 °C 7.3 °C 1013.1 hPa NW 0.3 km/h 9.7 km/h 68.1% 0 mm 207 W/m2
14:39 13.2 °C 7.2 °C 1013.1 hPa North 0.5 km/h 3.2 km/h 66.8% 0 mm 163 W/m2
14:44 13.2 °C 6.9 °C 1013.1 hPa NNE 0.2 km/h 3.2 km/h 66% 0 mm 153 W/m2
14:49 13.2 °C 7.1 °C 1013.1 hPa NNE 0.6 km/h 4.8 km/h 66.7% 0 mm 246 W/m2
14:54 13.2 °C 7.1 °C 1013.1 hPa North 1.4 km/h 6.4 km/h 66.6% 0 mm 172 W/m2
14:59 13.2 °C 7.2 °C 1013.1 hPa North 0.6 km/h 6.4 km/h 66.8% 0 mm 169 W/m2
15:04 13.2 °C 7.2 °C 1013.1 hPa NNW 0.5 km/h 6.4 km/h 66.9% 0 mm 135 W/m2
15:09 13.2 °C 7.2 °C 1013.1 hPa North 0.3 km/h 4.8 km/h 67% 0 mm 125 W/m2
15:14 13.2 °C 7.2 °C 1013.1 hPa NE 2.7 km/h 11.3 km/h 67% 0 mm 311 W/m2
15:19 13.2 °C 7.1 °C 1013.1 hPa ENE 3.5 km/h 11.3 km/h 66.3% 0 mm 497 W/m2
15:24 13.3 °C 7 °C 1013.1 hPa ENE 1.9 km/h 11.3 km/h 65.5% 0 mm 473 W/m2
15:29 13.4 °C 7 °C 1012.8 hPa ENE 0.5 km/h 11.3 km/h 65.3% 0 mm 424 W/m2
15:34 13.4 °C 7.2 °C 1012.8 hPa ENE 2.4 km/h 11.3 km/h 66.1% 0 mm 183 W/m2
15:39 13.3 °C 7.1 °C 1012.8 hPa East 0.2 km/h 6.4 km/h 65.7% 0 mm 46 W/m2
15:44 13.2 °C 7.1 °C 1012.8 hPa ENE 1.3 km/h 6.4 km/h 66.2% 0 mm 69 W/m2
15:49 13.2 °C 7 °C 1013.1 hPa ENE 1.8 km/h 8 km/h 66.2% 0 mm 76 W/m2
15:54 13.2 °C 6.9 °C 1013.1 hPa Calm   8 km/h 66% 0 mm 51 W/m2
15:59 13.1 °C 7.1 °C 1013.1 hPa ENE 0.8 km/h 8 km/h 66.8% 0 mm 42 W/m2
16:00 13.1 °C 7.1 °C 1013.1 hPa Calm   8 km/h 67% 0 mm 28 W/m2
16:09 12.9 °C 6.9 °C 1013.1 hPa NE 0.8 km/h 8 km/h 66.9% 0 mm 39 W/m2
16:11 12.8 °C 6.7 °C 1013.1 hPa Calm   8 km/h 66.2% 0 mm 44 W/m2
17:00 12.4 °C 6.9 °C 1013.1 hPa ENE 1.6 km/h 14.5 km/h 69% 0 mm 23 W/m2
17:30 11.8 °C 6.6 °C 1013.4 hPa Calm   6.4 km/h 70% 0 mm 14 W/m2
18:00 10.9 °C 6.2 °C 1013.8 hPa Calm   3.2 km/h 73% 0 mm 1 W/m2
18:30 10.1 °C 5.8 °C 1014.1 hPa Calm   4.8 km/h 75% 0 mm 0 W/m2
19:00 9.4 °C 5.6 °C 1014.4 hPa Calm   4.8 km/h 77% 0 mm 0 W/m2
19:30 8.7 °C 5.3 °C 1014.8 hPa Calm     79% 0 mm 0 W/m2
20:04 8.1 °C 5 °C 1015.1 hPa Calm     81% 0 mm 0 W/m2
20:09 8 °C 4.9 °C 1015.1 hPa Calm     81% 0 mm 0 W/m2
20:14 7.9 °C 5.1 °C 1015.1 hPa Calm     81.9% 0 mm 0 W/m2
20:19 7.9 °C 5.1 °C 1015.1 hPa Calm     82.4% 0 mm 0 W/m2
20:24 7.8 °C 5.1 °C 1015.1 hPa Calm     83% 0 mm 0 W/m2
20:29 7.7 °C 5 °C 1015.1 hPa Calm     83% 0 mm 0 W/m2
20:34 7.6 °C 5 °C 1015.5 hPa Calm     83.7% 0 mm 0 W/m2
20:39 7.5 °C 4.9 °C 1015.5 hPa Calm     84% 0 mm 0 W/m2
20:43 7.4 °C 4.9 °C 1015.5 hPa Calm     84% 0 mm 0 W/m2
Hartford County Weather
Compliments of Weather Underground - 2 mb